sensor_id;sensor_type;location;lat;lon;timestamp;P1;durP1;ratioP1;P2;durP2;ratioP2
6203;SDS011;3135;42.602;23.468;2023-02-22T00:00:55;4.93;;;2.70;;
6203;SDS011;3135;42.602;23.468;2023-02-22T00:03:28;3.20;;;2.40;;
6203;SDS011;3135;42.602;23.468;2023-02-22T00:06:00;4.10;;;2.13;;
6203;SDS011;3135;42.602;23.468;2023-02-22T00:08:29;2.72;;;2.15;;
6203;SDS011;3135;42.602;23.468;2023-02-22T00:11:05;3.10;;;2.15;;
6203;SDS011;3135;42.602;23.468;2023-02-22T00:13:32;4.75;;;1.92;;
6203;SDS011;3135;42.602;23.468;2023-02-22T00:15:58;3.60;;;1.80;;
6203;SDS011;3135;42.602;23.468;2023-02-22T00:18:24;3.90;;;1.63;;
6203;SDS011;3135;42.602;23.468;2023-02-22T00:20:52;2.67;;;1.73;;
6203;SDS011;3135;42.602;23.468;2023-02-22T00:23:20;2.40;;;1.50;;
6203;SDS011;3135;42.602;23.468;2023-02-22T00:25:47;2.88;;;1.55;;
6203;SDS011;3135;42.602;23.468;2023-02-22T00:28:14;2.40;;;1.48;;
6203;SDS011;3135;42.602;23.468;2023-02-22T00:30:41;3.50;;;1.45;;
6203;SDS011;3135;42.602;23.468;2023-02-22T00:33:07;1.83;;;1.30;;
6203;SDS011;3135;42.602;23.468;2023-02-22T00:35:34;1.75;;;1.33;;
6203;SDS011;3135;42.602;23.468;2023-02-22T00:38:00;2.97;;;1.50;;
6203;SDS011;3135;42.602;23.468;2023-02-22T00:40:27;1.88;;;1.30;;
6203;SDS011;3135;42.602;23.468;2023-02-22T00:42:55;2.22;;;1.20;;
6203;SDS011;3135;42.602;23.468;2023-02-22T00:45:22;1.60;;;1.33;;
6203;SDS011;3135;42.602;23.468;2023-02-22T00:47:49;3.00;;;1.50;;
6203;SDS011;3135;42.602;23.468;2023-02-22T00:50:17;4.45;;;1.88;;
6203;SDS011;3135;42.602;23.468;2023-02-22T00:52:43;3.22;;;2.20;;
6203;SDS011;3135;42.602;23.468;2023-02-22T00:55:13;2.00;;;1.70;;
6203;SDS011;3135;42.602;23.468;2023-02-22T00:57:41;2.13;;;1.67;;
6203;SDS011;3135;42.602;23.468;2023-02-22T01:00:07;6.60;;;3.47;;
6203;SDS011;3135;42.602;23.468;2023-02-22T01:02:40;2.28;;;1.67;;
6203;SDS011;3135;42.602;23.468;2023-02-22T01:05:08;1.90;;;1.15;;
6203;SDS011;3135;42.602;23.468;2023-02-22T01:07:36;1.53;;;1.40;;
6203;SDS011;3135;42.602;23.468;2023-02-22T01:10:03;4.82;;;1.45;;
6203;SDS011;3135;42.602;23.468;2023-02-22T01:12:29;1.88;;;1.05;;
6203;SDS011;3135;42.602;23.468;2023-02-22T01:14:55;1.33;;;1.07;;
6203;SDS011;3135;42.602;23.468;2023-02-22T01:17:25;2.97;;;1.10;;
6203;SDS011;3135;42.602;23.468;2023-02-22T01:19:51;2.30;;;1.10;;
6203;SDS011;3135;42.602;23.468;2023-02-22T01:22:18;2.55;;;1.20;;
6203;SDS011;3135;42.602;23.468;2023-02-22T01:24:45;4.97;;;3.28;;
6203;SDS011;3135;42.602;23.468;2023-02-22T01:27:11;3.93;;;2.57;;
6203;SDS011;3135;42.602;23.468;2023-02-22T01:29:37;2.42;;;1.77;;
6203;SDS011;3135;42.602;23.468;2023-02-22T01:32:03;2.47;;;1.47;;
6203;SDS011;3135;42.602;23.468;2023-02-22T01:34:30;4.18;;;2.60;;
6203;SDS011;3135;42.602;23.468;2023-02-22T01:36:57;2.33;;;1.20;;
6203;SDS011;3135;42.602;23.468;2023-02-22T01:39:23;1.45;;;1.25;;
6203;SDS011;3135;42.602;23.468;2023-02-22T01:41:48;2.70;;;1.75;;
6203;SDS011;3135;42.602;23.468;2023-02-22T01:44:18;1.77;;;1.67;;
6203;SDS011;3135;42.602;23.468;2023-02-22T01:46:55;2.10;;;2.00;;
6203;SDS011;3135;42.602;23.468;2023-02-22T01:49:28;5.50;;;3.75;;
6203;SDS011;3135;42.602;23.468;2023-02-22T01:51:57;3.33;;;3.03;;
6203;SDS011;3135;42.602;23.468;2023-02-22T01:54:33;2.63;;;2.03;;
6203;SDS011;3135;42.602;23.468;2023-02-22T01:59:48;1.83;;;1.70;;
6203;SDS011;3135;42.602;23.468;2023-02-22T02:02:17;1.88;;;1.77;;
6203;SDS011;3135;42.602;23.468;2023-02-22T02:04:45;2.13;;;1.52;;
6203;SDS011;3135;42.602;23.468;2023-02-22T02:07:13;1.60;;;1.50;;
6203;SDS011;3135;42.602;23.468;2023-02-22T02:09:51;1.40;;;1.25;;
6203;SDS011;3135;42.602;23.468;2023-02-22T02:12:21;3.30;;;1.40;;
6203;SDS011;3135;42.602;23.468;2023-02-22T02:14:50;1.23;;;1.08;;
6203;SDS011;3135;42.602;23.468;2023-02-22T02:17:16;1.88;;;1.42;;
6203;SDS011;3135;42.602;23.468;2023-02-22T02:22:22;1.95;;;1.25;;
6203;SDS011;3135;42.602;23.468;2023-02-22T02:33:43;1.88;;;1.17;;
6203;SDS011;3135;42.602;23.468;2023-02-22T02:36:26;7.30;;;6.07;;
6203;SDS011;3135;42.602;23.468;2023-02-22T02:38:58;4.67;;;3.23;;
6203;SDS011;3135;42.602;23.468;2023-02-22T02:41:46;1.40;;;1.30;;
6203;SDS011;3135;42.602;23.468;2023-02-22T02:44:36;2.57;;;1.87;;
6203;SDS011;3135;42.602;23.468;2023-02-22T02:47:14;3.90;;;2.28;;
6203;SDS011;3135;42.602;23.468;2023-02-22T02:49:54;1.70;;;1.48;;
6203;SDS011;3135;42.602;23.468;2023-02-22T02:52:24;4.15;;;3.75;;
6203;SDS011;3135;42.602;23.468;2023-02-22T02:54:51;3.92;;;3.40;;
6203;SDS011;3135;42.602;23.468;2023-02-22T02:57:19;1.83;;;1.70;;
6203;SDS011;3135;42.602;23.468;2023-02-22T02:59:45;1.60;;;1.50;;
6203;SDS011;3135;42.602;23.468;2023-02-22T03:07:41;2.40;;;1.80;;
6203;SDS011;3135;42.602;23.468;2023-02-22T03:13:22;1.30;;;1.20;;
6203;SDS011;3135;42.602;23.468;2023-02-22T03:15:55;1.60;;;1.50;;
6203;SDS011;3135;42.602;23.468;2023-02-22T03:21:13;3.45;;;1.92;;
6203;SDS011;3135;42.602;23.468;2023-02-22T03:23:49;2.38;;;2.17;;
6203;SDS011;3135;42.602;23.468;2023-02-22T03:26:24;2.08;;;1.90;;
6203;SDS011;3135;42.602;23.468;2023-02-22T03:28:55;1.30;;;1.20;;
6203;SDS011;3135;42.602;23.468;2023-02-22T03:31:23;1.70;;;1.60;;
6203;SDS011;3135;42.602;23.468;2023-02-22T03:33:55;1.63;;;1.52;;
6203;SDS011;3135;42.602;23.468;2023-02-22T03:36:27;1.52;;;1.42;;
6203;SDS011;3135;42.602;23.468;2023-02-22T03:38:56;15.30;;;11.23;;
6203;SDS011;3135;42.602;23.468;2023-02-22T03:41:23;5.68;;;3.55;;
6203;SDS011;3135;42.602;23.468;2023-02-22T03:43:58;1.20;;;1.10;;
6203;SDS011;3135;42.602;23.468;2023-02-22T03:46:37;1.00;;;0.90;;
6203;SDS011;3135;42.602;23.468;2023-02-22T03:51:35;0.90;;;0.90;;
6203;SDS011;3135;42.602;23.468;2023-02-22T03:54:02;1.58;;;0.80;;
6203;SDS011;3135;42.602;23.468;2023-02-22T03:56:30;2.22;;;0.90;;
6203;SDS011;3135;42.602;23.468;2023-02-22T03:59:06;0.70;;;0.70;;
6203;SDS011;3135;42.602;23.468;2023-02-22T04:01:34;0.82;;;0.80;;
6203;SDS011;3135;42.602;23.468;2023-02-22T04:04:00;2.03;;;0.80;;
6203;SDS011;3135;42.602;23.468;2023-02-22T04:06:27;2.10;;;0.93;;
6203;SDS011;3135;42.602;23.468;2023-02-22T04:08:53;1.00;;;0.80;;
6203;SDS011;3135;42.602;23.468;2023-02-22T04:11:18;2.27;;;1.53;;
6203;SDS011;3135;42.602;23.468;2023-02-22T04:13:44;1.93;;;1.50;;
6203;SDS011;3135;42.602;23.468;2023-02-22T04:16:09;1.67;;;1.20;;
6203;SDS011;3135;42.602;23.468;2023-02-22T04:18:35;1.50;;;0.90;;
6203;SDS011;3135;42.602;23.468;2023-02-22T04:21:00;1.00;;;0.90;;
6203;SDS011;3135;42.602;23.468;2023-02-22T04:23:26;1.63;;;1.52;;
6203;SDS011;3135;42.602;23.468;2023-02-22T04:25:52;2.03;;;1.80;;
6203;SDS011;3135;42.602;23.468;2023-02-22T04:28:18;1.57;;;1.30;;
6203;SDS011;3135;42.602;23.468;2023-02-22T04:30:43;1.63;;;1.10;;
6203;SDS011;3135;42.602;23.468;2023-02-22T04:33:09;1.08;;;0.93;;
6203;SDS011;3135;42.602;23.468;2023-02-22T04:35:35;1.20;;;1.00;;
6203;SDS011;3135;42.602;23.468;2023-02-22T04:38:00;0.90;;;0.90;;
6203;SDS011;3135;42.602;23.468;2023-02-22T04:40:28;1.40;;;0.82;;
6203;SDS011;3135;42.602;23.468;2023-02-22T04:42:54;1.40;;;0.97;;
6203;SDS011;3135;42.602;23.468;2023-02-22T04:45:19;1.10;;;0.80;;
6203;SDS011;3135;42.602;23.468;2023-02-22T04:47:45;1.20;;;0.90;;
6203;SDS011;3135;42.602;23.468;2023-02-22T04:50:10;0.80;;;0.80;;
6203;SDS011;3135;42.602;23.468;2023-02-22T04:52:36;2.63;;;1.95;;
6203;SDS011;3135;42.602;23.468;2023-02-22T04:55:02;11.83;;;6.50;;
6203;SDS011;3135;42.602;23.468;2023-02-22T04:57:28;5.80;;;3.30;;
6203;SDS011;3135;42.602;23.468;2023-02-22T04:59:54;2.70;;;1.93;;
6203;SDS011;3135;42.602;23.468;2023-02-22T05:02:19;2.73;;;2.53;;
6203;SDS011;3135;42.602;23.468;2023-02-22T05:04:45;1.50;;;1.40;;
6203;SDS011;3135;42.602;23.468;2023-02-22T05:07:10;3.60;;;1.23;;
6203;SDS011;3135;42.602;23.468;2023-02-22T05:09:36;2.58;;;1.80;;
6203;SDS011;3135;42.602;23.468;2023-02-22T05:12:02;1.80;;;1.70;;
6203;SDS011;3135;42.602;23.468;2023-02-22T05:14:27;2.70;;;2.30;;
6203;SDS011;3135;42.602;23.468;2023-02-22T05:16:53;7.07;;;4.78;;
6203;SDS011;3135;42.602;23.468;2023-02-22T05:19:20;5.95;;;4.53;;
6203;SDS011;3135;42.602;23.468;2023-02-22T05:21:45;3.83;;;2.60;;
6203;SDS011;3135;42.602;23.468;2023-02-22T05:24:11;6.27;;;3.40;;
6203;SDS011;3135;42.602;23.468;2023-02-22T05:26:36;4.80;;;3.30;;
6203;SDS011;3135;42.602;23.468;2023-02-22T05:29:02;7.63;;;4.90;;
6203;SDS011;3135;42.602;23.468;2023-02-22T05:31:27;16.60;;;6.70;;
6203;SDS011;3135;42.602;23.468;2023-02-22T05:33:52;21.97;;;8.77;;
6203;SDS011;3135;42.602;23.468;2023-02-22T05:36:18;14.17;;;6.43;;
6203;SDS011;3135;42.602;23.468;2023-02-22T05:38:43;14.67;;;8.00;;
6203;SDS011;3135;42.602;23.468;2023-02-22T05:41:10;13.97;;;8.27;;
6203;SDS011;3135;42.602;23.468;2023-02-22T05:43:36;12.43;;;7.65;;
6203;SDS011;3135;42.602;23.468;2023-02-22T05:46:02;29.80;;;12.23;;
6203;SDS011;3135;42.602;23.468;2023-02-22T05:48:28;9.07;;;5.80;;
6203;SDS011;3135;42.602;23.468;2023-02-22T05:50:53;7.07;;;5.77;;
6203;SDS011;3135;42.602;23.468;2023-02-22T05:53:20;7.28;;;5.95;;
6203;SDS011;3135;42.602;23.468;2023-02-22T05:55:45;2.40;;;1.40;;
6203;SDS011;3135;42.602;23.468;2023-02-22T05:58:11;1.77;;;1.43;;
6203;SDS011;3135;42.602;23.468;2023-02-22T06:00:36;1.40;;;1.10;;
6203;SDS011;3135;42.602;23.468;2023-02-22T06:03:03;2.47;;;1.40;;
6203;SDS011;3135;42.602;23.468;2023-02-22T06:05:32;3.72;;;1.50;;
6203;SDS011;3135;42.602;23.468;2023-02-22T06:07:57;2.07;;;1.20;;
6203;SDS011;3135;42.602;23.468;2023-02-22T06:10:23;1.55;;;1.15;;
6203;SDS011;3135;42.602;23.468;2023-02-22T06:12:49;2.20;;;1.70;;
6203;SDS011;3135;42.602;23.468;2023-02-22T06:15:16;1.55;;;1.35;;
6203;SDS011;3135;42.602;23.468;2023-02-22T06:17:42;3.58;;;3.28;;
6203;SDS011;3135;42.602;23.468;2023-02-22T06:20:12;2.88;;;1.83;;
6203;SDS011;3135;42.602;23.468;2023-02-22T06:22:39;3.88;;;3.47;;
6203;SDS011;3135;42.602;23.468;2023-02-22T06:25:06;4.70;;;4.30;;
6203;SDS011;3135;42.602;23.468;2023-02-22T06:27:32;7.18;;;4.43;;
6203;SDS011;3135;42.602;23.468;2023-02-22T06:29:59;4.05;;;2.42;;
6203;SDS011;3135;42.602;23.468;2023-02-22T06:32:25;2.30;;;1.60;;
6203;SDS011;3135;42.602;23.468;2023-02-22T06:34:51;2.58;;;1.50;;
6203;SDS011;3135;42.602;23.468;2023-02-22T06:37:16;4.60;;;1.47;;
6203;SDS011;3135;42.602;23.468;2023-02-22T06:39:42;3.10;;;1.50;;
6203;SDS011;3135;42.602;23.468;2023-02-22T06:42:07;4.47;;;2.90;;
6203;SDS011;3135;42.602;23.468;2023-02-22T06:44:33;13.30;;;6.57;;
6203;SDS011;3135;42.602;23.468;2023-02-22T06:46:58;18.77;;;8.43;;
6203;SDS011;3135;42.602;23.468;2023-02-22T06:49:24;25.30;;;10.70;;
6203;SDS011;3135;42.602;23.468;2023-02-22T06:51:51;34.75;;;13.38;;
6203;SDS011;3135;42.602;23.468;2023-02-22T06:54:16;43.58;;;15.82;;
6203;SDS011;3135;42.602;23.468;2023-02-22T06:56:42;36.60;;;12.30;;
6203;SDS011;3135;42.602;23.468;2023-02-22T06:59:07;24.63;;;10.93;;
6203;SDS011;3135;42.602;23.468;2023-02-22T07:01:33;34.67;;;12.47;;
6203;SDS011;3135;42.602;23.468;2023-02-22T07:03:59;34.17;;;14.27;;
6203;SDS011;3135;42.602;23.468;2023-02-22T07:06:25;27.85;;;12.32;;
6203;SDS011;3135;42.602;23.468;2023-02-22T07:08:50;28.77;;;12.70;;
6203;SDS011;3135;42.602;23.468;2023-02-22T07:11:16;27.77;;;12.33;;
6203;SDS011;3135;42.602;23.468;2023-02-22T07:13:41;27.10;;;12.10;;
6203;SDS011;3135;42.602;23.468;2023-02-22T07:16:07;21.27;;;8.88;;
6203;SDS011;3135;42.602;23.468;2023-02-22T07:18:32;18.20;;;9.25;;
6203;SDS011;3135;42.602;23.468;2023-02-22T07:20:58;28.02;;;11.10;;
6203;SDS011;3135;42.602;23.468;2023-02-22T07:23:24;40.22;;;15.25;;
6203;SDS011;3135;42.602;23.468;2023-02-22T07:25:49;45.60;;;17.40;;
6203;SDS011;3135;42.602;23.468;2023-02-22T07:28:15;52.00;;;17.50;;
6203;SDS011;3135;42.602;23.468;2023-02-22T07:30:40;45.90;;;14.70;;
6203;SDS011;3135;42.602;23.468;2023-02-22T07:33:07;26.05;;;10.70;;
6203;SDS011;3135;42.602;23.468;2023-02-22T07:35:38;26.00;;;12.27;;
6203;SDS011;3135;42.602;23.468;2023-02-22T07:38:08;23.33;;;10.23;;
6203;SDS011;3135;42.602;23.468;2023-02-22T07:40:34;23.23;;;10.38;;
6203;SDS011;3135;42.602;23.468;2023-02-22T07:45:32;23.52;;;10.50;;
6203;SDS011;3135;42.602;23.468;2023-02-22T07:47:59;18.85;;;8.65;;
6203;SDS011;3135;42.602;23.468;2023-02-22T07:50:26;28.15;;;10.40;;
6203;SDS011;3135;42.602;23.468;2023-02-22T07:52:57;20.45;;;9.38;;
6203;SDS011;3135;42.602;23.468;2023-02-22T07:55:25;18.10;;;8.32;;
6203;SDS011;3135;42.602;23.468;2023-02-22T07:57:54;17.87;;;7.90;;
6203;SDS011;3135;42.602;23.468;2023-02-22T08:00:23;15.82;;;7.60;;
6203;SDS011;3135;42.602;23.468;2023-02-22T08:02:53;18.80;;;7.60;;
6203;SDS011;3135;42.602;23.468;2023-02-22T08:05:19;14.80;;;6.13;;
6203;SDS011;3135;42.602;23.468;2023-02-22T08:07:47;10.83;;;5.13;;
6203;SDS011;3135;42.602;23.468;2023-02-22T08:10:13;12.95;;;5.47;;
6203;SDS011;3135;42.602;23.468;2023-02-22T08:12:41;14.03;;;6.50;;
6203;SDS011;3135;42.602;23.468;2023-02-22T08:15:07;15.10;;;5.90;;
6203;SDS011;3135;42.602;23.468;2023-02-22T08:17:34;14.65;;;6.65;;
6203;SDS011;3135;42.602;23.468;2023-02-22T08:19:59;18.17;;;6.83;;
6203;SDS011;3135;42.602;23.468;2023-02-22T08:22:26;12.60;;;5.80;;
6203;SDS011;3135;42.602;23.468;2023-02-22T08:24:53;15.63;;;6.50;;
6203;SDS011;3135;42.602;23.468;2023-02-22T08:27:25;16.17;;;7.07;;
6203;SDS011;3135;42.602;23.468;2023-02-22T08:29:51;15.98;;;7.30;;
6203;SDS011;3135;42.602;23.468;2023-02-22T08:32:18;19.37;;;7.77;;
6203;SDS011;3135;42.602;23.468;2023-02-22T08:34:43;17.30;;;7.63;;
6203;SDS011;3135;42.602;23.468;2023-02-22T08:37:09;20.73;;;8.23;;
6203;SDS011;3135;42.602;23.468;2023-02-22T08:39:35;19.83;;;7.73;;
6203;SDS011;3135;42.602;23.468;2023-02-22T08:42:00;12.13;;;6.00;;
6203;SDS011;3135;42.602;23.468;2023-02-22T08:44:26;11.27;;;4.83;;
6203;SDS011;3135;42.602;23.468;2023-02-22T08:46:51;5.70;;;3.43;;
6203;SDS011;3135;42.602;23.468;2023-02-22T08:49:17;11.40;;;5.20;;
6203;SDS011;3135;42.602;23.468;2023-02-22T08:51:42;7.93;;;3.80;;
6203;SDS011;3135;42.602;23.468;2023-02-22T08:54:08;8.03;;;3.60;;
6203;SDS011;3135;42.602;23.468;2023-02-22T08:56:33;8.23;;;3.50;;
6203;SDS011;3135;42.602;23.468;2023-02-22T08:58:59;5.70;;;2.93;;
6203;SDS011;3135;42.602;23.468;2023-02-22T09:01:24;7.07;;;3.30;;
6203;SDS011;3135;42.602;23.468;2023-02-22T09:03:50;8.52;;;3.65;;
6203;SDS011;3135;42.602;23.468;2023-02-22T09:06:16;10.07;;;3.90;;
6203;SDS011;3135;42.602;23.468;2023-02-22T09:08:42;7.88;;;3.20;;
6203;SDS011;3135;42.602;23.468;2023-02-22T09:11:08;6.17;;;3.00;;
6203;SDS011;3135;42.602;23.468;2023-02-22T09:13:34;7.25;;;3.03;;
6203;SDS011;3135;42.602;23.468;2023-02-22T09:15:59;6.97;;;3.45;;
6203;SDS011;3135;42.602;23.468;2023-02-22T09:18:25;6.17;;;3.23;;
6203;SDS011;3135;42.602;23.468;2023-02-22T09:20:52;5.85;;;3.42;;
6203;SDS011;3135;42.602;23.468;2023-02-22T09:23:18;8.80;;;3.83;;
6203;SDS011;3135;42.602;23.468;2023-02-22T09:25:48;5.07;;;3.10;;
6203;SDS011;3135;42.602;23.468;2023-02-22T09:28:13;7.03;;;4.00;;
6203;SDS011;3135;42.602;23.468;2023-02-22T09:30:39;9.73;;;4.77;;
6203;SDS011;3135;42.602;23.468;2023-02-22T09:33:06;10.37;;;4.90;;
6203;SDS011;3135;42.602;23.468;2023-02-22T09:35:37;10.20;;;4.80;;
6203;SDS011;3135;42.602;23.468;2023-02-22T09:38:06;8.30;;;4.40;;
6203;SDS011;3135;42.602;23.468;2023-02-22T09:40:33;8.43;;;4.82;;
6203;SDS011;3135;42.602;23.468;2023-02-22T09:45:42;14.32;;;5.00;;
6203;SDS011;3135;42.602;23.468;2023-02-22T09:48:26;8.50;;;3.50;;
6203;SDS011;3135;42.602;23.468;2023-02-22T09:50:56;8.13;;;3.67;;
6203;SDS011;3135;42.602;23.468;2023-02-22T09:53:26;6.35;;;3.17;;
6203;SDS011;3135;42.602;23.468;2023-02-22T09:56:10;8.50;;;3.47;;
6203;SDS011;3135;42.602;23.468;2023-02-22T09:58:39;75.90;;;21.15;;
6203;SDS011;3135;42.602;23.468;2023-02-22T10:04:10;11.77;;;4.47;;
6203;SDS011;3135;42.602;23.468;2023-02-22T10:07:15;6.80;;;3.90;;
6203;SDS011;3135;42.602;23.468;2023-02-22T10:09:54;11.00;;;4.25;;
6203;SDS011;3135;42.602;23.468;2023-02-22T10:25:43;12.03;;;4.97;;
6203;SDS011;3135;42.602;23.468;2023-02-22T10:30:57;8.93;;;4.03;;
6203;SDS011;3135;42.602;23.468;2023-02-22T10:33:29;12.73;;;3.80;;
6203;SDS011;3135;42.602;23.468;2023-02-22T10:36:00;9.67;;;4.17;;
6203;SDS011;3135;42.602;23.468;2023-02-22T10:38:33;5.78;;;3.30;;
6203;SDS011;3135;42.602;23.468;2023-02-22T10:41:19;5.18;;;3.10;;
6203;SDS011;3135;42.602;23.468;2023-02-22T10:43:47;5.63;;;3.17;;
6203;SDS011;3135;42.602;23.468;2023-02-22T10:46:14;4.72;;;3.10;;
6203;SDS011;3135;42.602;23.468;2023-02-22T10:48:43;5.85;;;2.92;;
6203;SDS011;3135;42.602;23.468;2023-02-22T10:51:11;3.07;;;2.20;;
6203;SDS011;3135;42.602;23.468;2023-02-22T10:53:37;9.38;;;2.42;;
6203;SDS011;3135;42.602;23.468;2023-02-22T10:56:08;3.70;;;2.15;;
6203;SDS011;3135;42.602;23.468;2023-02-22T10:58:57;4.43;;;1.92;;
6203;SDS011;3135;42.602;23.468;2023-02-22T11:01:37;3.17;;;1.70;;
6203;SDS011;3135;42.602;23.468;2023-02-22T11:04:23;46.83;;;15.57;;
6203;SDS011;3135;42.602;23.468;2023-02-22T11:09:50;10.82;;;5.22;;
6203;SDS011;3135;42.602;23.468;2023-02-22T11:12:20;2.88;;;1.90;;
6203;SDS011;3135;42.602;23.468;2023-02-22T11:17:50;2.47;;;1.90;;
6203;SDS011;3135;42.602;23.468;2023-02-22T11:20:23;3.65;;;2.10;;
6203;SDS011;3135;42.602;23.468;2023-02-22T11:22:57;7.70;;;1.75;;
6203;SDS011;3135;42.602;23.468;2023-02-22T11:25:46;3.87;;;1.63;;
6203;SDS011;3135;42.602;23.468;2023-02-22T11:28:25;6.47;;;1.70;;
6203;SDS011;3135;42.602;23.468;2023-02-22T11:31:13;2.20;;;1.50;;
6203;SDS011;3135;42.602;23.468;2023-02-22T11:33:54;3.00;;;1.50;;
6203;SDS011;3135;42.602;23.468;2023-02-22T11:36:32;2.00;;;1.50;;
6203;SDS011;3135;42.602;23.468;2023-02-22T11:39:26;2.20;;;1.40;;
6203;SDS011;3135;42.602;23.468;2023-02-22T11:41:54;2.42;;;1.30;;
6203;SDS011;3135;42.602;23.468;2023-02-22T11:44:30;1.40;;;1.00;;
6203;SDS011;3135;42.602;23.468;2023-02-22T11:46:57;1.75;;;1.40;;
6203;SDS011;3135;42.602;23.468;2023-02-22T11:49:31;2.70;;;1.30;;
6203;SDS011;3135;42.602;23.468;2023-02-22T12:11:57;1.92;;;1.73;;
6203;SDS011;3135;42.602;23.468;2023-02-22T12:17:43;2.25;;;1.80;;
6203;SDS011;3135;42.602;23.468;2023-02-22T12:20:37;2.70;;;1.70;;
6203;SDS011;3135;42.602;23.468;2023-02-22T12:23:13;3.25;;;2.03;;
6203;SDS011;3135;42.602;23.468;2023-02-22T12:25:48;4.55;;;2.38;;
6203;SDS011;3135;42.602;23.468;2023-02-22T12:28:44;7.67;;;2.40;;
6203;SDS011;3135;42.602;23.468;2023-02-22T12:31:19;3.63;;;1.92;;
6203;SDS011;3135;42.602;23.468;2023-02-22T12:36:50;4.67;;;1.70;;
6203;SDS011;3135;42.602;23.468;2023-02-22T12:42:09;6.55;;;2.00;;
6203;SDS011;3135;42.602;23.468;2023-02-22T12:44:40;1.52;;;1.42;;
6203;SDS011;3135;42.602;23.468;2023-02-22T12:47:17;2.20;;;1.70;;
6203;SDS011;3135;42.602;23.468;2023-02-22T12:52:34;1.90;;;1.70;;
6203;SDS011;3135;42.602;23.468;2023-02-22T13:00:59;4.22;;;1.52;;
6203;SDS011;3135;42.602;23.468;2023-02-22T13:04:01;1.60;;;1.50;;
6203;SDS011;3135;42.602;23.468;2023-02-22T13:09:04;2.75;;;1.50;;
6203;SDS011;3135;42.602;23.468;2023-02-22T13:11:44;1.67;;;1.45;;
6203;SDS011;3135;42.602;23.468;2023-02-22T13:22:17;2.95;;;1.80;;
6203;SDS011;3135;42.602;23.468;2023-02-22T13:30:34;2.58;;;1.90;;
6203;SDS011;3135;42.602;23.468;2023-02-22T13:39:02;3.35;;;1.90;;
6203;SDS011;3135;42.602;23.468;2023-02-22T13:41:53;2.15;;;1.73;;
6203;SDS011;3135;42.602;23.468;2023-02-22T13:52:36;3.28;;;1.90;;
6203;SDS011;3135;42.602;23.468;2023-02-22T13:55:05;4.25;;;2.20;;
6203;SDS011;3135;42.602;23.468;2023-02-22T13:57:43;1.83;;;1.70;;
6203;SDS011;3135;42.602;23.468;2023-02-22T14:06:06;2.22;;;1.77;;
6203;SDS011;3135;42.602;23.468;2023-02-22T14:10:45;3.15;;;1.80;;
6203;SDS011;3135;42.602;23.468;2023-02-22T14:13:14;2.93;;;1.80;;
6203;SDS011;3135;42.602;23.468;2023-02-22T14:18:28;1.98;;;1.60;;
6203;SDS011;3135;42.602;23.468;2023-02-22T14:21:27;3.37;;;1.73;;
6203;SDS011;3135;42.602;23.468;2023-02-22T14:26:26;5.72;;;2.38;;
6203;SDS011;3135;42.602;23.468;2023-02-22T14:34:10;2.28;;;1.55;;
6203;SDS011;3135;42.602;23.468;2023-02-22T14:36:55;4.30;;;1.70;;
6203;SDS011;3135;42.602;23.468;2023-02-22T14:47:41;5.00;;;2.40;;
6203;SDS011;3135;42.602;23.468;2023-02-22T14:50:15;3.47;;;2.08;;
6203;SDS011;3135;42.602;23.468;2023-02-22T14:52:42;3.88;;;2.08;;
6203;SDS011;3135;42.602;23.468;2023-02-22T15:00:45;4.65;;;2.25;;
6203;SDS011;3135;42.602;23.468;2023-02-22T15:08:42;4.78;;;2.42;;
6203;SDS011;3135;42.602;23.468;2023-02-22T15:11:20;6.80;;;2.50;;
6203;SDS011;3135;42.602;23.468;2023-02-22T15:13:51;4.15;;;2.60;;
6203;SDS011;3135;42.602;23.468;2023-02-22T15:16:18;2.40;;;1.92;;
6203;SDS011;3135;42.602;23.468;2023-02-22T15:18:47;2.70;;;2.10;;
6203;SDS011;3135;42.602;23.468;2023-02-22T15:21:17;3.53;;;2.35;;
6203;SDS011;3135;42.602;23.468;2023-02-22T15:23:49;4.67;;;2.33;;
6203;SDS011;3135;42.602;23.468;2023-02-22T15:26:20;5.38;;;3.10;;
6203;SDS011;3135;42.602;23.468;2023-02-22T15:28:59;5.43;;;2.35;;
6203;SDS011;3135;42.602;23.468;2023-02-22T15:31:31;3.95;;;2.20;;
6203;SDS011;3135;42.602;23.468;2023-02-22T15:36:36;6.10;;;2.50;;
6203;SDS011;3135;42.602;23.468;2023-02-22T15:39:01;3.53;;;2.23;;
6203;SDS011;3135;42.602;23.468;2023-02-22T15:41:33;13.57;;;4.55;;
6203;SDS011;3135;42.602;23.468;2023-02-22T15:46:27;4.50;;;2.20;;
6203;SDS011;3135;42.602;23.468;2023-02-22T15:51:34;6.10;;;2.35;;
6203;SDS011;3135;42.602;23.468;2023-02-22T15:54:02;3.58;;;2.20;;
6203;SDS011;3135;42.602;23.468;2023-02-22T15:56:30;5.70;;;2.58;;
6203;SDS011;3135;42.602;23.468;2023-02-22T15:59:05;7.57;;;2.60;;
6203;SDS011;3135;42.602;23.468;2023-02-22T16:01:42;6.03;;;2.88;;
6203;SDS011;3135;42.602;23.468;2023-02-22T16:04:22;8.18;;;3.42;;
6203;SDS011;3135;42.602;23.468;2023-02-22T16:06:52;19.45;;;6.68;;
6203;SDS011;3135;42.602;23.468;2023-02-22T16:09:27;16.05;;;4.88;;
6203;SDS011;3135;42.602;23.468;2023-02-22T16:14:51;3.55;;;2.92;;
6203;SDS011;3135;42.602;23.468;2023-02-22T16:20:28;15.48;;;6.30;;
6203;SDS011;3135;42.602;23.468;2023-02-22T16:22:48;5.65;;;2.90;;
6203;SDS011;3135;42.602;23.468;2023-02-22T16:30:57;7.20;;;3.90;;
6203;SDS011;3135;42.602;23.468;2023-02-22T16:33:23;8.52;;;4.63;;
6203;SDS011;3135;42.602;23.468;2023-02-22T16:35:48;9.27;;;4.90;;
6203;SDS011;3135;42.602;23.468;2023-02-22T16:38:17;5.68;;;3.25;;
6203;SDS011;3135;42.602;23.468;2023-02-22T16:43:18;11.52;;;4.55;;
6203;SDS011;3135;42.602;23.468;2023-02-22T16:45:49;8.13;;;3.97;;
6203;SDS011;3135;42.602;23.468;2023-02-22T16:48:20;4.38;;;3.10;;
6203;SDS011;3135;42.602;23.468;2023-02-22T16:50:48;6.15;;;4.20;;
6203;SDS011;3135;42.602;23.468;2023-02-22T16:53:16;11.32;;;4.55;;
6203;SDS011;3135;42.602;23.468;2023-02-22T16:55:44;8.10;;;4.18;;
6203;SDS011;3135;42.602;23.468;2023-02-22T16:58:15;7.25;;;4.00;;
6203;SDS011;3135;42.602;23.468;2023-02-22T17:00:43;7.20;;;3.80;;
6203;SDS011;3135;42.602;23.468;2023-02-22T17:03:16;7.72;;;3.75;;
6203;SDS011;3135;42.602;23.468;2023-02-22T17:05:42;6.25;;;3.60;;
6203;SDS011;3135;42.602;23.468;2023-02-22T17:08:08;8.15;;;3.75;;
6203;SDS011;3135;42.602;23.468;2023-02-22T17:10:34;6.75;;;3.40;;
6203;SDS011;3135;42.602;23.468;2023-02-22T17:12:59;6.72;;;3.85;;
6203;SDS011;3135;42.602;23.468;2023-02-22T17:15:30;6.15;;;3.90;;
6203;SDS011;3135;42.602;23.468;2023-02-22T17:17:58;4.80;;;3.83;;
6203;SDS011;3135;42.602;23.468;2023-02-22T17:20:29;7.55;;;4.15;;
6203;SDS011;3135;42.602;23.468;2023-02-22T17:22:56;7.13;;;4.50;;
6203;SDS011;3135;42.602;23.468;2023-02-22T17:25:27;10.85;;;5.22;;
6203;SDS011;3135;42.602;23.468;2023-02-22T17:27:56;7.63;;;4.70;;
6203;SDS011;3135;42.602;23.468;2023-02-22T17:30:21;9.43;;;4.93;;
6203;SDS011;3135;42.602;23.468;2023-02-22T17:32:49;10.23;;;4.67;;
6203;SDS011;3135;42.602;23.468;2023-02-22T17:35:17;5.13;;;3.43;;
6203;SDS011;3135;42.602;23.468;2023-02-22T17:37:45;6.90;;;4.33;;
6203;SDS011;3135;42.602;23.468;2023-02-22T17:40:11;8.57;;;4.80;;
6203;SDS011;3135;42.602;23.468;2023-02-22T17:42:38;9.13;;;5.00;;
6203;SDS011;3135;42.602;23.468;2023-02-22T17:45:05;9.43;;;4.75;;
6203;SDS011;3135;42.602;23.468;2023-02-22T17:47:31;8.65;;;4.80;;
6203;SDS011;3135;42.602;23.468;2023-02-22T17:49:56;8.63;;;4.30;;
6203;SDS011;3135;42.602;23.468;2023-02-22T17:52:22;7.27;;;4.17;;
6203;SDS011;3135;42.602;23.468;2023-02-22T17:54:48;6.95;;;4.30;;
6203;SDS011;3135;42.602;23.468;2023-02-22T17:57:14;10.73;;;6.20;;
6203;SDS011;3135;42.602;23.468;2023-02-22T17:59:40;13.97;;;6.17;;
6203;SDS011;3135;42.602;23.468;2023-02-22T18:02:06;12.87;;;5.70;;
6203;SDS011;3135;42.602;23.468;2023-02-22T18:04:32;14.00;;;7.53;;
6203;SDS011;3135;42.602;23.468;2023-02-22T18:06:58;10.43;;;5.00;;
6203;SDS011;3135;42.602;23.468;2023-02-22T18:09:24;7.33;;;3.90;;
6203;SDS011;3135;42.602;23.468;2023-02-22T18:11:50;7.27;;;4.80;;
6203;SDS011;3135;42.602;23.468;2023-02-22T18:14:15;8.53;;;5.00;;
6203;SDS011;3135;42.602;23.468;2023-02-22T18:16:41;6.73;;;4.47;;